Time;durP1;ratioP1;P1;durP2;ratioP2;P2;SDS_P1;SDS_P2;PMS_P1;PMS_P2;Temp;Humidity;BMP_temperature;BMP_pressure;BME280_temperature;BME280_humidity;BME280_pressure;Samples;Min_cycle;Max_cycle;Signal;HPM_P1;HPM_P2
2023/11/06 00:01:27;;;;;;;1.40;1.40;;;;;;;9.55;100.00;99230.81;10499660;28;20036;-71
2023/11/06 00:06:27;;;;;;;0.40;0.40;;;;;;;9.59;100.00;99239.28;10498306;28;20032;-71
2023/11/06 00:11:28;;;;;;;1.25;1.25;;;;;;;9.56;100.00;99240.56;10500070;28;20040;-71
2023/11/06 00:16:28;;;;;;;1.75;1.70;;;;;;;9.50;100.00;99249.59;10499977;28;20431;-71
2023/11/06 00:21:28;;;;;;;0.50;0.50;;;;;;;9.47;100.00;99253.56;10500085;28;20056;-71
2023/11/06 00:26:29;;;;;;;0.40;0.40;;;;;;;9.43;100.00;99273.19;10500411;28;20514;-72
2023/11/06 00:31:36;;;;;;;0.40;0.40;;;;;;;9.36;100.00;99275.97;10516176;28;20051;-71
2023/11/06 00:36:36;;;;;;;0.80;0.80;;;;;;;9.36;100.00;99278.69;10498622;28;20119;-71
2023/11/06 00:41:37;;;;;;;0.40;0.40;;;;;;;9.38;100.00;99292.81;10515348;28;20054;-71
2023/11/06 00:46:37;;;;;;;0.40;0.40;;;;;;;9.39;100.00;99280.09;10498202;28;20033;-71
2023/11/06 00:51:38;;;;;;;0.50;0.50;;;;;;;9.37;100.00;99299.25;10496287;28;20087;-71
2023/11/06 00:56:38;;;;;;;0.40;0.40;;;;;;;9.36;100.00;99294.06;10497929;28;20040;-71
2023/11/06 01:01:39;;;;;;;0.43;0.43;;;;;;;9.37;100.00;99293.00;10498108;28;20483;-71
2023/11/06 01:06:39;;;;;;;0.40;0.40;;;;;;;9.32;100.00;99307.22;10497703;28;20090;-71
2023/11/06 01:11:39;;;;;;;0.40;0.40;;;;;;;9.31;100.00;99314.47;10498055;28;20037;-71
2023/11/06 01:16:40;;;;;;;0.30;0.30;;;;;;;9.17;100.00;99309.50;10497812;28;20029;-71
2023/11/06 01:21:40;;;;;;;0.75;0.75;;;;;;;9.05;100.00;99323.75;10497683;28;20468;-71
2023/11/06 01:26:42;;;;;;;0.30;0.30;;;;;;;9.15;100.00;99344.81;10496234;28;20036;-71
2023/11/06 01:31:43;;;;;;;0.40;0.40;;;;;;;9.18;100.00;99348.94;10514322;28;20159;-72
2023/11/06 01:36:44;;;;;;;0.35;0.35;;;;;;;9.29;100.00;99342.78;10498096;28;20028;-71
2023/11/06 01:41:47;;;;;;;0.47;0.47;;;;;;;9.12;100.00;99364.16;10496310;28;20397;-71
2023/11/06 01:46:48;;;;;;;0.40;0.40;;;;;;;9.03;100.00;99363.66;10496573;28;20096;-71
2023/11/06 01:51:48;;;;;;;0.40;0.40;;;;;;;9.07;100.00;99361.34;10495132;28;20085;-72
2023/11/06 01:56:49;;;;;;;0.70;0.70;;;;;;;9.22;100.00;99360.94;10493544;28;20039;-72
2023/11/06 02:01:50;;;;;;;0.57;0.57;;;;;;;9.20;100.00;99371.16;10495155;28;20081;-72
2023/11/06 02:06:50;;;;;;;0.45;0.45;;;;;;;9.13;100.00;99379.34;10495000;28;20114;-72
2023/11/06 02:11:50;;;;;;;0.50;0.50;;;;;;;9.16;100.00;99383.47;10494711;28;20033;-73
2023/11/06 02:16:52;;;;;;;0.55;0.55;;;;;;;9.13;100.00;99386.63;10496553;28;20052;-72
2023/11/06 02:21:52;;;;;;;0.40;0.40;;;;;;;8.98;100.00;99385.09;10495821;28;20076;-73
2023/11/06 02:26:55;;;;;;;1.30;1.30;;;;;;;8.82;100.00;99389.22;10494759;28;20130;-72
2023/11/06 02:31:57;;;;;;;0.45;0.45;;;;;;;8.74;100.00;99404.84;10510297;28;20126;-73
2023/11/06 02:36:57;;;;;;;0.50;0.50;;;;;;;8.59;100.00;99411.44;10477146;28;20063;-73
2023/11/06 02:41:57;;;;;;;1.17;1.17;;;;;;;8.58;100.00;99420.59;10495585;28;20064;-73
2023/11/06 02:46:58;;;;;;;2.60;2.45;;;;;;;8.55;100.00;99421.03;10494600;28;20377;-73
2023/11/06 02:51:58;;;;;;;0.50;0.50;;;;;;;8.50;100.00;99433.53;10495082;28;20036;-73
2023/11/06 02:56:59;;;;;;;0.32;0.32;;;;;;;8.53;100.00;99439.28;10494019;28;20369;-73
2023/11/06 03:02:01;;;;;;;0.40;0.40;;;;;;;8.67;100.00;99445.41;10494749;28;20036;-73
2023/11/06 03:07:01;;;;;;;0.35;0.35;;;;;;;8.59;100.00;99449.22;10495489;28;20056;-73
2023/11/06 03:12:02;;;;;;;0.30;0.30;;;;;;;8.50;100.00;99455.09;10494615;28;20064;-73
2023/11/06 03:17:03;;;;;;;0.68;0.68;;;;;;;8.48;100.00;99468.78;10494126;28;20108;-73
2023/11/06 03:22:03;;;;;;;0.50;0.50;;;;;;;8.43;100.00;99449.75;10493521;28;20080;-73
2023/11/06 03:27:04;;;;;;;0.50;0.50;;;;;;;8.44;100.00;99455.97;10494682;28;20036;-73
2023/11/06 03:32:05;;;;;;;0.43;0.43;;;;;;;8.47;100.00;99453.66;10494329;28;20195;-73
2023/11/06 03:37:05;;;;;;;2.25;2.15;;;;;;;8.60;100.00;99467.03;10510497;28;20037;-73
2023/11/06 03:42:06;;;;;;;0.30;0.30;;;;;;;8.67;100.00;99466.16;10500417;28;20460;-72
2023/11/06 03:47:06;;;;;;;0.50;0.50;;;;;;;8.71;100.00;99478.16;10502155;28;20149;-73
2023/11/06 03:52:10;;;;;;;0.40;0.40;;;;;;;8.80;100.00;99471.44;10501868;28;20115;-73
2023/11/06 03:57:11;;;;;;;0.40;0.40;;;;;;;8.71;100.00;99468.22;10500981;28;20093;-73
2023/11/06 04:02:11;;;;;;;0.80;0.80;;;;;;;8.52;100.00;99467.34;10501050;28;20085;-73
2023/11/06 04:07:12;;;;;;;0.47;0.47;;;;;;;8.41;100.00;99478.00;10500560;28;20025;-73
2023/11/06 04:12:12;;;;;;;0.50;0.50;;;;;;;8.28;100.00;99487.78;10501507;28;20036;-73
2023/11/06 04:17:12;;;;;;;0.32;0.32;;;;;;;8.21;100.00;99480.78;10515611;28;20090;-73
2023/11/06 04:22:13;;;;;;;2.15;2.05;;;;;;;8.13;100.00;99485.38;10499954;28;20080;-73
2023/11/06 04:27:13;;;;;;;0.47;0.47;;;;;;;8.05;100.00;99499.13;10499547;28;20032;-73
2023/11/06 04:32:14;;;;;;;0.40;0.40;;;;;;;8.05;100.00;99504.53;10499977;28;20036;-73
2023/11/06 04:37:15;;;;;;;0.40;0.40;;;;;;;8.05;100.00;99515.31;10506915;28;20051;-73
2023/11/06 04:42:15;;;;;;;0.40;0.40;;;;;;;8.02;100.00;99521.13;10509949;28;20098;-73
2023/11/06 04:47:15;;;;;;;0.40;0.40;;;;;;;8.00;100.00;99509.72;10498492;28;20033;-72
2023/11/06 04:52:16;;;;;;;0.38;0.38;;;;;;;7.98;100.00;99514.50;10499365;28;20039;-72
2023/11/06 04:57:17;;;;;;;0.50;0.50;;;;;;;7.99;100.00;99526.13;10500446;28;20047;-73
2023/11/06 05:02:17;;;;;;;12.85;4.53;;;;;;;7.98;100.00;99528.00;10498071;28;20115;-72
2023/11/06 05:07:17;;;;;;;2.95;0.82;;;;;;;7.97;100.00;99531.72;10497791;28;20483;-72
2023/11/06 05:12:18;;;;;;;0.30;0.30;;;;;;;7.97;100.00;99526.31;10497016;28;20134;-72
2023/11/06 05:17:19;;;;;;;0.40;0.40;;;;;;;7.97;100.00;99544.38;10497152;28;20119;-72
2023/11/06 05:22:20;;;;;;;0.75;0.75;;;;;;;7.97;100.00;99553.28;10497687;28;20059;-72
2023/11/06 05:27:20;;;;;;;0.47;0.47;;;;;;;8.02;100.00;99560.75;10496168;28;20426;-72
2023/11/06 05:32:21;;;;;;;0.40;0.40;;;;;;;8.01;100.00;99559.06;10496846;28;20480;-72
2023/11/06 05:37:26;;;;;;;0.50;0.50;;;;;;;7.98;100.00;99560.34;10496600;28;20115;-71
2023/11/06 05:42:27;;;;;;;0.40;0.40;;;;;;;8.00;100.00;99566.31;10496847;28;20383;-72
2023/11/06 05:47:27;;;;;;;0.40;0.40;;;;;;;8.01;100.00;99570.69;10496015;28;20100;-72
2023/11/06 05:52:28;;;;;;;0.50;0.50;;;;;;;8.06;100.00;99573.56;10496520;28;20545;-71
2023/11/06 05:57:28;;;;;;;0.40;0.40;;;;;;;8.14;100.00;99567.13;10495749;28;20040;-72
2023/11/06 06:02:28;;;;;;;0.45;0.45;;;;;;;8.13;100.00;99563.56;10495705;28;20032;-72
2023/11/06 06:07:29;;;;;;;0.40;0.40;;;;;;;8.04;100.00;99593.69;10496574;28;20409;-71
2023/11/06 06:12:30;;;;;;;0.40;0.40;;;;;;;8.04;100.00;99601.78;10494228;28;20115;-71
2023/11/06 06:17:30;;;;;;;0.60;0.60;;;;;;;8.00;100.00;99604.06;10495090;28;20042;-71
2023/11/06 06:22:31;;;;;;;0.50;0.50;;;;;;;8.03;100.00;99610.91;10494681;28;20114;-71
2023/11/06 06:27:32;;;;;;;0.43;0.43;;;;;;;8.19;100.00;99615.00;10511264;28;20093;-71
2023/11/06 06:32:32;;;;;;;0.60;0.60;;;;;;;8.33;100.00;99624.72;10495912;28;20341;-71
2023/11/06 06:37:32;;;;;;;1.35;1.35;;;;;;;8.37;100.00;99625.94;10494556;28;20115;-71
2023/11/06 06:42:34;;;;;;;0.40;0.40;;;;;;;8.42;100.00;99626.13;10494775;28;20033;-71
2023/11/06 06:47:34;;;;;;;0.40;0.40;;;;;;;8.43;100.00;99619.72;10494044;28;20378;-71
2023/11/06 06:52:35;;;;;;;0.40;0.40;;;;;;;8.28;100.00;99624.50;10495047;28;20040;-71
2023/11/06 06:57:35;;;;;;;0.50;0.50;;;;;;;8.24;100.00;99632.22;10494339;28;20338;-71
2023/11/06 07:02:36;;;;;;;3.13;3.00;;;;;;;8.30;100.00;99649.41;10494101;28;20127;-71
2023/11/06 07:07:36;;;;;;;0.40;0.40;;;;;;;8.42;100.00;99647.72;10494004;28;20073;-71
2023/11/06 07:12:37;;;;;;;5.05;2.85;;;;;;;8.78;100.00;99657.94;10494027;28;20055;-70
2023/11/06 07:17:37;;;;;;;13.32;2.85;;;;;;;8.91;100.00;99648.91;10502359;28;20033;-70
2023/11/06 07:22:38;;;;;;;6.25;1.83;;;;;;;9.27;100.00;99650.94;10501242;28;20147;-71
2023/11/06 07:27:39;;;;;;;8.02;2.03;;;;;;;9.51;100.00;99670.09;10501410;28;20464;-70
2023/11/06 07:32:39;;;;;;;5.63;2.28;;;;;;;9.78;100.00;99673.38;10504414;28;20040;-70
2023/11/06 07:37:40;;;;;;;4.43;1.50;;;;;;;10.24;100.00;99674.78;10502183;28;20028;-70
2023/11/06 07:42:40;;;;;;;8.13;2.45;;;;;;;10.38;100.00;99684.44;10517565;28;20033;-71
2023/11/06 07:47:40;;;;;;;4.20;2.30;;;;;;;9.82;100.00;99665.66;10499318;28;20040;-70
2023/11/06 07:52:41;;;;;;;6.97;2.88;;;;;;;10.17;100.00;99682.97;10499868;28;20028;-70
2023/11/06 07:57:41;;;;;;;3.92;2.15;;;;;;;9.96;100.00;99688.81;10500190;28;20041;-70
2023/11/06 08:02:42;;;;;;;7.82;2.25;;;;;;;9.82;100.00;99681.88;10499148;28;20040;-70
2023/11/06 08:07:42;;;;;;;2.50;2.17;;;;;;;9.65;100.00;99698.66;10498344;28;20032;-70
2023/11/06 08:12:43;;;;;;;6.80;1.85;;;;;;;9.63;100.00;99691.81;10500536;28;20512;-71
2023/11/06 08:17:43;;;;;;;3.70;1.77;;;;;;;9.54;100.00;99702.91;10499616;28;20119;-70
2023/11/06 08:22:43;;;;;;;12.02;3.13;;;;;;;9.79;100.00;99693.94;10497787;28;20060;-70
2023/11/06 08:27:44;;;;;;;2.65;1.83;;;;;;;9.84;100.00;99699.53;10497892;28;20413;-70
2023/11/06 08:32:44;;;;;;;9.68;3.58;;;;;;;10.16;100.00;99700.25;10498929;28;20032;-69
2023/11/06 08:37:45;;;;;;;12.45;3.83;;;;;;;10.92;100.00;99690.84;10498374;28;20124;-70
2023/11/06 08:42:46;;;;;;;11.55;3.75;;;;;;;11.76;100.00;99706.25;10515549;28;20033;-70
2023/11/06 08:47:47;;;;;;;9.02;3.95;;;;;;;11.94;100.00;99695.31;10498359;28;20097;-70
2023/11/06 08:52:47;;;;;;;3.20;2.78;;;;;;;12.04;100.00;99708.28;10499282;28;20044;-70
2023/11/06 08:57:48;;;;;;;14.73;3.20;;;;;;;12.48;100.00;99711.44;10497018;28;20120;-70
2023/11/06 09:02:48;;;;;;;9.50;2.67;;;;;;;12.96;100.00;99716.50;10497966;28;20086;-70
2023/11/06 09:07:49;;;;;;;10.52;2.45;;;;;;;13.36;100.00;99721.06;10497581;28;20039;-70
2023/11/06 09:12:50;;;;;;;8.52;2.58;;;;;;;12.62;100.00;99718.25;10497279;28;20048;-70
2023/11/06 09:17:50;;;;;;;4.72;2.17;;;;;;;12.93;100.00;99735.19;10497840;28;20376;-70
2023/11/06 09:22:51;;;;;;;1.88;1.40;;;;;;;12.16;100.00;99740.88;10496719;28;20509;-69
2023/11/06 09:27:51;;;;;;;6.60;2.05;;;;;;;11.45;100.00;99748.84;10496925;28;20029;-70
2023/11/06 09:32:51;;;;;;;7.72;2.88;;;;;;;10.78;100.00;99743.50;10496171;28;20048;-69
2023/11/06 09:37:52;;;;;;;1.23;1.20;;;;;;;10.80;100.00;99760.38;10497076;28;20526;-69
2023/11/06 09:42:52;;;;;;;4.95;2.08;;;;;;;10.76;100.00;99777.31;10496809;28;20120;-69
2023/11/06 09:47:53;;;;;;;5.18;2.15;;;;;;;10.60;100.00;99789.56;10496064;28;20036;-69
2023/11/06 09:52:53;;;;;;;4.45;2.72;;;;;;;10.74;100.00;99785.63;10494677;28;20063;-69
2023/11/06 09:57:54;;;;;;;3.33;1.90;;;;;;;11.01;100.00;99805.13;10495457;28;20028;-69
2023/11/06 10:02:54;;;;;;;4.88;3.40;;;;;;;11.01;100.00;99815.09;10494167;28;20465;-69
2023/11/06 10:07:55;;;;;;;5.25;2.67;;;;;;;10.83;100.00;99833.03;10494952;28;20028;-69
2023/11/06 10:13:09;;;;;;;4.63;1.70;;;;;;;10.66;100.00;99811.16;10496053;28;20418;-69
2023/11/06 10:18:13;;;;;;;4.03;2.60;;;;;;;10.67;100.00;99834.44;10496758;28;20050;-70
2023/11/06 10:23:24;;;;;;;4.38;1.75;;;;;;;10.52;100.00;99838.56;10501493;28;20059;-69
2023/11/06 10:28:24;;;;;;;3.00;1.15;;;;;;;10.54;100.00;99845.41;10498070;28;20162;-70
2023/11/06 10:33:25;;;;;;;5.03;2.08;;;;;;;10.58;100.00;99854.75;10495632;28;20451;-70
2023/11/06 10:38:29;;;;;;;3.45;1.88;;;;;;;10.48;100.00;99851.72;10476763;28;20037;-69
2023/11/06 10:43:30;;;;;;;7.15;1.88;;;;;;;10.58;100.00;99870.97;10496191;28;20131;-69
2023/11/06 10:48:37;;;;;;;7.15;2.95;;;;;;;10.28;100.00;99860.03;10495333;28;20479;-69
2023/11/06 10:53:38;;;;;;;7.10;2.25;;;;;;;10.00;100.00;99866.66;10493378;28;20035;-69
2023/11/06 10:58:40;;;;;;;8.23;2.13;;;;;;;9.83;100.00;99870.94;10494471;28;20047;-68
2023/11/06 11:03:40;;;;;;;8.27;2.10;;;;;;;10.24;100.00;99862.31;10495394;28;20490;-69
2023/11/06 11:08:41;;;;;;;6.00;3.08;;;;;;;11.14;100.00;99874.56;10495439;28;20036;-69
2023/11/06 11:13:43;;;;;;;1.88;1.48;;;;;;;11.92;100.00;99889.22;10495682;28;20119;-69
2023/11/06 11:18:43;;;;;;;2.17;1.80;;;;;;;11.89;100.00;99882.38;10495555;28;20034;-69
2023/11/06 11:23:49;;;;;;;3.80;1.95;;;;;;;11.37;100.00;99888.25;10495233;28;20049;-69
2023/11/06 11:28:55;;;;;;;9.13;2.25;;;;;;;11.11;100.00;99894.00;10492468;28;20056;-70
2023/11/06 11:33:56;;;;;;;19.30;2.60;;;;;;;11.00;100.00;99890.13;10495897;28;20457;-69
2023/11/06 11:38:57;;;;;;;6.68;2.15;;;;;;;11.11;100.00;99899.41;10492788;28;20048;-69
2023/11/06 11:44:04;;;;;;;4.85;1.70;;;;;;;11.00;100.00;99902.84;10494512;28;20543;-69
2023/11/06 11:49:05;;;;;;;19.08;2.47;;;;;;;10.96;100.00;99901.66;10493602;28;20077;-70
2023/11/06 11:54:06;;;;;;;8.07;2.60;;;;;;;11.51;100.00;99891.63;10493362;28;20031;-69
2023/11/06 11:59:06;;;;;;;4.68;2.03;;;;;;;12.73;100.00;99899.41;10491497;28;20119;-70
2023/11/06 12:04:20;;;;;;;8.65;2.42;;;;;;;12.73;100.00;99907.56;10500310;28;20048;-70
2023/11/06 12:09:20;;;;;;;4.18;2.33;;;;;;;12.53;100.00;99897.00;10483624;28;20059;-70
2023/11/06 12:14:21;;;;;;;4.18;1.77;;;;;;;12.33;100.00;99908.19;10500325;28;20036;-69
2023/11/06 12:19:21;;;;;;;2.40;2.05;;;;;;;12.09;100.00;99911.91;10498869;28;20425;-70
2023/11/06 12:24:22;;;;;;;6.70;2.08;;;;;;;12.07;100.00;99924.91;10500904;28;20137;-70
2023/11/06 12:29:29;;;;;;;4.05;1.42;;;;;;;11.95;100.00;99921.31;10499902;28;20131;-70
2023/11/06 12:34:29;;;;;;;1.77;1.52;;;;;;;11.82;100.00;99933.97;10498059;28;20414;-70
2023/11/06 12:39:32;;;;;;;1.42;1.33;;;;;;;11.75;100.00;99932.41;10499524;28;20113;-69
2023/11/06 12:44:39;;;;;;;1.95;1.52;;;;;;;12.02;100.00;99932.91;10499368;28;20055;-70
2023/11/06 12:49:49;;;;;;;3.28;1.65;;;;;;;12.21;100.00;99920.09;10498296;28;20036;-69
2023/11/06 12:54:49;;;;;;;1.92;1.20;;;;;;;12.16;100.00;99939.81;10499314;28;20195;-69
2023/11/06 12:59:51;;;;;;;11.23;2.88;;;;;;;12.37;100.00;99934.88;10498443;28;20115;-69
2023/11/06 13:04:52;;;;;;;3.47;1.75;;;;;;;12.51;100.00;99948.03;10496732;28;20100;-70
2023/11/06 13:09:52;;;;;;;5.28;2.38;;;;;;;12.22;100.00;99938.03;10498123;28;20028;-70
2023/11/06 13:14:53;;;;;;;1.98;1.63;;;;;;;12.39;100.00;99949.06;10495795;28;20123;-69
2023/11/06 13:19:57;;;;;;;3.58;1.80;;;;;;;12.27;100.00;99952.56;10496801;28;20408;-70
2023/11/06 13:24:57;;;;;;;3.95;2.15;;;;;;;12.05;100.00;99963.13;10496602;28;20206;-70
2023/11/06 13:29:58;;;;;;;2.33;2.13;;;;;;;11.86;100.00;99953.38;10496021;28;20041;-70
2023/11/06 13:34:58;;;;;;;3.80;1.80;;;;;;;11.75;100.00;99954.94;10497460;28;20113;-70
2023/11/06 13:40:13;;;;;;;15.90;2.30;;;;;;;11.67;100.00;99951.72;10496072;28;20066;-70
2023/11/06 13:45:13;;;;;;;6.75;2.42;;;;;;;11.76;100.00;99967.44;10496674;28;20044;-70
2023/11/06 13:50:28;;;;;;;4.53;1.58;;;;;;;11.70;100.00;99979.19;10495812;28;20040;-70
2023/11/06 13:55:33;;;;;;;7.80;1.80;;;;;;;11.71;100.00;99978.16;10495825;28;20036;-69
2023/11/06 14:00:49;;;;;;;1.58;1.48;;;;;;;11.75;100.00;99981.25;10495918;28;20105;-70
2023/11/06 14:05:51;;;;;;;4.97;2.13;;;;;;;11.61;100.00;99984.13;10512280;28;20103;-70
2023/11/06 14:10:51;;;;;;;2.25;1.67;;;;;;;11.83;100.00;99981.75;10495652;28;20086;-70
2023/11/06 14:15:52;;;;;;;2.72;1.35;;;;;;;11.94;100.00;99990.22;10495968;28;20094;-70
2023/11/06 14:20:53;;;;;;;2.80;1.52;;;;;;;11.67;100.00;99993.22;10496734;28;20078;-70
2023/11/06 14:25:55;;;;;;;2.70;1.73;;;;;;;11.67;100.00;99995.91;10495402;28;20111;-70
2023/11/06 14:30:56;;;;;;;4.50;1.67;;;;;;;11.79;100.00;99999.53;10496361;28;20116;-70
2023/11/06 14:35:58;;;;;;;10.10;1.85;;;;;;;11.68;100.00;99997.59;10496091;28;20051;-70
2023/11/06 14:40:59;;;;;;;2.53;1.85;;;;;;;11.52;100.00;99999.03;10497334;28;20040;-70
2023/11/06 14:46:00;;;;;;;2.28;1.73;;;;;;;11.30;100.00;100006.78;10495455;28;20036;-70
2023/11/06 14:51:01;;;;;;;4.65;2.28;;;;;;;11.13;100.00;99992.13;10495384;28;20084;-70
2023/11/06 14:56:01;;;;;;;4.93;2.45;;;;;;;11.05;100.00;100024.94;10494981;28;20040;-70
2023/11/06 15:01:02;;;;;;;7.22;2.30;;;;;;;10.87;100.00;100018.41;10494913;28;20119;-70
2023/11/06 15:06:02;;;;;;;2.58;1.45;;;;;;;10.90;100.00;100020.66;10495999;28;20136;-70
2023/11/06 15:11:03;;;;;;;6.00;2.50;;;;;;;10.93;100.00;100028.34;10494423;28;20111;-70
2023/11/06 15:16:04;;;;;;;5.15;2.10;;;;;;;10.95;100.00;100028.16;10494520;28;20036;-70
2023/11/06 15:21:05;;;;;;;3.63;2.00;;;;;;;10.82;100.00;100028.25;10493594;28;20064;-70
2023/11/06 15:26:05;;;;;;;6.50;1.90;;;;;;;10.80;100.00;100027.66;10494650;28;20049;-70
2023/11/06 15:31:06;;;;;;;10.25;3.15;;;;;;;10.75;100.00;100036.41;10493653;28;20071;-70
2023/11/06 15:36:06;;;;;;;10.95;2.47;;;;;;;10.68;100.00;100049.19;10497272;28;20043;-70
2023/11/06 15:41:07;;;;;;;2.28;2.13;;;;;;;10.47;100.00;100040.38;10502359;28;20032;-70
2023/11/06 15:46:07;;;;;;;4.10;2.17;;;;;;;10.43;100.00;100054.53;10501343;28;20033;-70
2023/11/06 15:51:08;;;;;;;4.22;2.70;;;;;;;10.31;100.00;100061.72;10502402;28;20036;-70
2023/11/06 15:56:10;;;;;;;7.63;2.35;;;;;;;10.23;100.00;100065.44;10501556;28;20101;-70
2023/11/06 16:01:11;;;;;;;2.90;2.63;;;;;;;10.13;100.00;100070.50;10503923;28;20032;-70
2023/11/06 16:06:12;;;;;;;14.77;2.30;;;;;;;10.12;100.00;100082.38;10504124;28;20117;-70
2023/11/06 16:11:14;;;;;;;16.02;3.30;;;;;;;10.08;100.00;100086.53;10500232;28;20441;-70
2023/11/06 16:16:14;;;;;;;9.38;3.33;;;;;;;10.01;100.00;100098.19;10482394;28;20051;-70
2023/11/06 16:21:15;;;;;;;4.53;2.53;;;;;;;9.97;100.00;100099.69;10500460;28;20487;-70
2023/11/06 16:26:15;;;;;;;12.20;2.85;;;;;;;9.97;100.00;100099.69;10501563;28;20372;-70
2023/11/06 16:31:16;;;;;;;6.82;3.50;;;;;;;9.96;100.00;100111.56;10499611;28;20067;-70
2023/11/06 16:36:16;;;;;;;10.40;3.15;;;;;;;10.06;100.00;100110.28;10498146;28;20484;-70
2023/11/06 16:41:16;;;;;;;9.00;3.10;;;;;;;10.02;100.00;100129.63;10481711;28;20056;-70
2023/11/06 16:46:17;;;;;;;12.20;3.63;;;;;;;10.08;100.00;100111.69;10497648;28;20024;-70
2023/11/06 16:51:17;;;;;;;10.25;3.25;;;;;;;10.14;100.00;100137.91;10499307;28;20047;-70
2023/11/06 16:56:18;;;;;;;6.85;2.95;;;;;;;10.31;100.00;100141.00;10499629;28;20384;-69
2023/11/06 17:01:20;;;;;;;5.22;2.88;;;;;;;10.28;100.00;100152.25;10498220;28;20407;-70
2023/11/06 17:06:20;;;;;;;9.52;2.78;;;;;;;10.02;100.00;100150.44;10480110;28;20531;-70
2023/11/06 17:11:23;;;;;;;15.00;3.92;;;;;;;9.94;100.00;100161.47;10498441;28;20124;-69
2023/11/06 17:16:23;;;;;;;11.80;4.60;;;;;;;9.98;100.00;100162.72;10497830;28;20139;-70
2023/11/06 17:21:24;;;;;;;10.18;2.80;;;;;;;10.06;100.00;100164.38;10515797;28;20511;-69
2023/11/06 17:26:25;;;;;;;9.25;3.03;;;;;;;9.98;100.00;100165.41;10497475;28;20079;-69
2023/11/06 17:31:25;;;;;;;10.13;3.17;;;;;;;9.92;100.00;100168.97;10498265;28;20155;-69
2023/11/06 17:36:26;;;;;;;3.95;2.97;;;;;;;9.92;100.00;100183.34;10500630;28;20205;-70
2023/11/06 17:41:26;;;;;;;10.82;2.30;;;;;;;9.86;100.00;100181.47;10479452;28;20037;-69
2023/11/06 17:46:27;;;;;;;12.40;3.55;;;;;;;9.71;100.00;100181.69;10495896;28;20408;-70
2023/11/06 17:51:30;;;;;;;5.47;2.38;;;;;;;9.61;100.00;100188.56;10495642;28;20111;-69
2023/11/06 17:56:30;;;;;;;12.70;3.38;;;;;;;9.52;100.00;100196.06;10496469;28;20115;-69
2023/11/06 18:01:31;;;;;;;19.00;4.38;;;;;;;9.51;100.00;100202.50;10495612;28;20198;-69
2023/11/06 18:06:32;;;;;;;3.63;2.65;;;;;;;9.42;100.00;100206.44;10495284;28;20035;-69
2023/11/06 18:11:32;;;;;;;3.45;2.25;;;;;;;9.39;100.00;100223.91;10495097;28;20033;-70
2023/11/06 18:16:33;;;;;;;8.75;2.95;;;;;;;9.46;100.00;100232.00;10496106;28;20048;-70
2023/11/06 18:21:33;;;;;;;5.95;3.67;;;;;;;9.62;100.00;100238.88;10495344;28;20127;-70
2023/11/06 18:26:34;;;;;;;16.30;2.85;;;;;;;9.73;100.00;100249.06;10496659;28;20484;-69
2023/11/06 18:31:35;;;;;;;9.02;3.88;;;;;;;9.74;100.00;100250.75;10476963;28;20064;-71
2023/11/06 18:36:35;;;;;;;10.18;3.17;;;;;;;9.59;100.00;100255.53;10494702;28;20088;-70
2023/11/06 18:41:38;;;;;;;13.65;3.45;;;;;;;9.59;100.00;100258.22;10494945;28;20036;-71
2023/11/06 18:46:39;;;;;;;12.57;3.33;;;;;;;9.46;100.00;100259.88;10495344;28;20033;-71
2023/11/06 18:51:39;;;;;;;13.40;4.32;;;;;;;9.38;100.00;100267.31;10494432;28;20036;-70
2023/11/06 18:56:40;;;;;;;2.72;2.47;;;;;;;9.51;100.00;100284.41;10494490;28;20356;-72
2023/11/06 19:01:41;;;;;;;2.03;1.92;;;;;;;9.52;100.00;100274.44;10493004;28;20047;-70
2023/11/06 19:06:42;;;;;;;0.50;0.50;;;;;;;9.50;100.00;100277.31;10493814;28;20563;-70
2023/11/06 19:11:44;;;;;;;2.40;2.20;;;;;;;9.31;100.00;100289.75;10498992;28;20043;-70
2023/11/06 19:16:44;;;;;;;0.40;0.40;;;;;;;9.14;100.00;100283.06;10503385;28;20060;-69
2023/11/06 19:21:44;;;;;;;0.40;0.40;;;;;;;9.09;100.00;100299.03;10501713;28;20468;-69
2023/11/06 19:26:45;;;;;;;0.40;0.40;;;;;;;9.10;100.00;100303.44;10516978;28;20063;-69
2023/11/06 19:31:48;;;;;;;0.40;0.40;;;;;;;9.25;100.00;100311.34;10501273;28;20442;-70
2023/11/06 19:36:48;;;;;;;0.50;0.50;;;;;;;9.32;100.00;100313.06;10501219;28;20082;-68
2023/11/06 19:41:48;;;;;;;0.50;0.50;;;;;;;9.43;100.00;100306.22;10498921;28;20090;-70
2023/11/06 19:46:49;;;;;;;0.50;0.50;;;;;;;9.37;100.00;100308.91;10501176;28;20032;-70
2023/11/06 19:51:49;;;;;;;1.30;1.30;;;;;;;9.38;100.00;100315.97;10501355;28;20143;-74
2023/11/06 19:56:50;;;;;;;2.80;2.58;;;;;;;9.24;100.00;100312.41;10515929;28;20044;-72
2023/11/06 20:01:50;;;;;;;0.40;0.40;;;;;;;9.07;100.00;100314.63;10500989;28;20044;-72
2023/11/06 20:06:50;;;;;;;4.15;2.42;;;;;;;8.94;100.00;100322.69;10515986;28;20095;-72
2023/11/06 20:11:51;;;;;;;0.80;0.80;;;;;;;8.82;100.00;100327.81;10499913;28;20117;-74
2023/11/06 20:16:51;;;;;;;6.13;2.78;;;;;;;8.77;100.00;100330.28;10499652;28;20113;-72
2023/11/06 20:21:52;;;;;;;0.93;0.93;;;;;;;8.71;100.00;100336.47;10499901;28;20056;-73
2023/11/06 20:26:52;;;;;;;0.50;0.50;;;;;;;8.69;100.00;100349.34;10499207;28;20032;-71
2023/11/06 20:31:53;;;;;;;4.10;3.75;;;;;;;8.75;100.00;100352.09;10500206;28;20060;-70
2023/11/06 20:36:53;;;;;;;0.40;0.40;;;;;;;8.75;100.00;100343.16;10498783;28;20029;-70
2023/11/06 20:41:53;;;;;;;0.98;0.98;;;;;;;8.75;100.00;100344.00;10497827;28;20063;-70
2023/11/06 20:46:54;;;;;;;5.38;2.63;;;;;;;8.69;100.00;100349.34;10498539;28;20032;-70
2023/11/06 20:51:54;;;;;;;0.40;0.40;;;;;;;8.72;100.00;100357.88;10498223;28;20032;-70
2023/11/06 20:56:55;;;;;;;0.40;0.40;;;;;;;8.63;100.00;100353.66;10498880;28;20543;-69
2023/11/06 21:01:55;;;;;;;0.60;0.60;;;;;;;8.61;100.00;100355.72;10498322;28;20044;-70
2023/11/06 21:06:56;;;;;;;0.60;0.60;;;;;;;8.71;100.00;100364.31;10498696;28;20036;-70
2023/11/06 21:11:59;;;;;;;0.45;0.45;;;;;;;8.67;100.00;100359.50;10495923;28;20059;-70
2023/11/06 21:17:00;;;;;;;0.60;0.60;;;;;;;8.66;100.00;100357.84;10497438;28;20125;-69
2023/11/06 21:22:00;;;;;;;0.50;0.50;;;;;;;8.55;100.00;100359.22;10497817;28;20087;-70
2023/11/06 21:27:01;;;;;;;4.43;4.03;;;;;;;8.60;100.00;100371.09;10496197;28;20105;-70
2023/11/06 21:32:01;;;;;;;0.40;0.40;;;;;;;8.49;100.00;100377.03;10515763;28;20037;-71
2023/11/06 21:37:04;;;;;;;0.40;0.40;;;;;;;8.50;100.00;100389.50;10500409;28;20405;-70
2023/11/06 21:42:07;;;;;;;0.40;0.40;;;;;;;8.46;100.00;100380.13;10496086;28;20127;-70
2023/11/06 21:47:08;;;;;;;0.50;0.50;;;;;;;8.48;100.00;100388.84;10494856;28;20032;-70
2023/11/06 21:52:09;;;;;;;0.80;0.80;;;;;;;8.39;100.00;100379.22;10497044;28;20037;-69
2023/11/06 21:57:09;;;;;;;0.50;0.50;;;;;;;8.41;100.00;100379.06;10496868;28;20043;-71
2023/11/06 22:02:10;;;;;;;0.60;0.60;;;;;;;8.41;100.00;100395.25;10496135;28;20044;-70
2023/11/06 22:07:11;;;;;;;0.40;0.40;;;;;;;8.41;100.00;100385.28;10495991;28;20124;-71
2023/11/06 22:12:12;;;;;;;0.63;0.63;;;;;;;8.40;100.00;100398.97;10495139;28;20040;-70
2023/11/06 22:17:13;;;;;;;0.65;0.65;;;;;;;8.39;100.00;100390.03;10496139;28;20033;-71
2023/11/06 22:22:14;;;;;;;0.50;0.50;;;;;;;8.33;100.00;100397.03;10495698;28;20048;-70
2023/11/06 22:27:14;;;;;;;9.45;4.13;;;;;;;8.27;100.00;100399.66;10495445;28;20037;-69
2023/11/06 22:32:15;;;;;;;0.73;0.73;;;;;;;8.29;100.00;100401.13;10510357;28;20460;-69
2023/11/06 22:37:15;;;;;;;0.50;0.50;;;;;;;8.27;100.00;100413.16;10494978;28;20098;-70
2023/11/06 22:42:16;;;;;;;0.50;0.50;;;;;;;8.30;100.00;100419.00;10476997;28;20108;-70
2023/11/06 22:47:16;;;;;;;0.40;0.40;;;;;;;8.27;100.00;100418.56;10493484;28;20115;-69
2023/11/06 22:52:17;;;;;;;1.83;1.73;;;;;;;8.27;100.00;100427.47;10476556;28;20036;-70
2023/11/06 22:57:17;;;;;;;0.60;0.60;;;;;;;8.33;100.00;100440.19;10494829;28;20024;-71
2023/11/06 23:02:18;;;;;;;0.85;0.85;;;;;;;8.39;100.00;100435.88;10496223;28;20036;-70
2023/11/06 23:07:19;;;;;;;0.50;0.50;;;;;;;8.34;100.00;100444.53;10495620;28;20037;-70